Terminal Aerodrome Forecast
Issued by NWS Chicago, IL

Home | Current Version | Previous Version | Graphics & Text | Print | Product List | Glossary On
Versions: 1 2 3 4 5 6 7 8 9 10 11 12 13 14 15 16 17 18 19 20 21 22 23 24 25 26
192
FTUS43 KLOT 061139
TAFRFD
TAF
KRFD 061139Z 0612/0712 21005KT P6SM SCT045
     FM061245 22008KT P6SM OVC020
     FM061900 24009KT P6SM BKN030
     FM070000 22007KT P6SM BKN120
     FM070600 21010KT P6SM OVC070=

USA.gov is the U.S. government's official web portal to all federal, state and local government web resources and services.